sensor_id;sensor_type;location;lat;lon;timestamp;P1;durP1;ratioP1;P2;durP2;ratioP2
23142;SDS011;11740;51.168;4.112;2023-07-24T00:00:33;2.67;;;2.30;;
23142;SDS011;11740;51.168;4.112;2023-07-24T00:03:02;2.78;;;2.38;;
23142;SDS011;11740;51.168;4.112;2023-07-24T00:05:29;2.88;;;2.30;;
23142;SDS011;11740;51.168;4.112;2023-07-24T00:07:56;2.22;;;2.03;;
23142;SDS011;11740;51.168;4.112;2023-07-24T00:10:23;1.80;;;1.70;;
23142;SDS011;11740;51.168;4.112;2023-07-24T00:12:50;2.25;;;1.73;;
23142;SDS011;11740;51.168;4.112;2023-07-24T00:15:17;2.17;;;1.60;;
23142;SDS011;11740;51.168;4.112;2023-07-24T00:17:44;3.17;;;1.75;;
23142;SDS011;11740;51.168;4.112;2023-07-24T00:20:11;2.78;;;1.48;;
23142;SDS011;11740;51.168;4.112;2023-07-24T00:22:38;1.45;;;1.23;;
23142;SDS011;11740;51.168;4.112;2023-07-24T00:25:05;2.10;;;1.60;;
23142;SDS011;11740;51.168;4.112;2023-07-24T00:27:32;1.38;;;1.20;;
23142;SDS011;11740;51.168;4.112;2023-07-24T00:29:59;1.20;;;1.10;;
23142;SDS011;11740;51.168;4.112;2023-07-24T00:32:26;2.42;;;1.20;;
23142;SDS011;11740;51.168;4.112;2023-07-24T00:34:53;3.45;;;1.10;;
23142;SDS011;11740;51.168;4.112;2023-07-24T00:37:20;1.48;;;1.00;;
23142;SDS011;11740;51.168;4.112;2023-07-24T00:39:47;1.17;;;0.95;;
23142;SDS011;11740;51.168;4.112;2023-07-24T00:42:14;1.05;;;0.95;;
23142;SDS011;11740;51.168;4.112;2023-07-24T00:44:41;1.13;;;1.00;;
23142;SDS011;11740;51.168;4.112;2023-07-24T00:47:08;2.60;;;1.17;;
23142;SDS011;11740;51.168;4.112;2023-07-24T00:49:35;1.80;;;1.02;;
23142;SDS011;11740;51.168;4.112;2023-07-24T00:52:02;1.60;;;1.00;;
23142;SDS011;11740;51.168;4.112;2023-07-24T00:54:30;1.02;;;0.93;;
23142;SDS011;11740;51.168;4.112;2023-07-24T00:56:59;3.22;;;1.27;;
23142;SDS011;11740;51.168;4.112;2023-07-24T00:59:27;0.90;;;0.80;;
23142;SDS011;11740;51.168;4.112;2023-07-24T01:01:54;1.75;;;1.10;;
23142;SDS011;11740;51.168;4.112;2023-07-24T01:04:21;1.80;;;0.98;;
23142;SDS011;11740;51.168;4.112;2023-07-24T01:06:48;1.73;;;1.20;;
23142;SDS011;11740;51.168;4.112;2023-07-24T01:09:15;2.97;;;1.35;;
23142;SDS011;11740;51.168;4.112;2023-07-24T01:11:44;1.33;;;1.10;;
23142;SDS011;11740;51.168;4.112;2023-07-24T01:14:24;3.70;;;1.17;;
23142;SDS011;11740;51.168;4.112;2023-07-24T01:17:04;1.33;;;1.23;;
23142;SDS011;11740;51.168;4.112;2023-07-24T01:19:38;2.17;;;1.30;;
23142;SDS011;11740;51.168;4.112;2023-07-24T01:22:32;3.10;;;1.50;;
23142;SDS011;11740;51.168;4.112;2023-07-24T01:25:57;2.95;;;1.35;;
23142;SDS011;11740;51.168;4.112;2023-07-24T01:28:26;2.97;;;1.52;;
23142;SDS011;11740;51.168;4.112;2023-07-24T01:30:53;3.00;;;1.52;;
23142;SDS011;11740;51.168;4.112;2023-07-24T01:33:21;2.15;;;1.48;;
23142;SDS011;11740;51.168;4.112;2023-07-24T01:35:51;4.47;;;1.48;;
23142;SDS011;11740;51.168;4.112;2023-07-24T01:38:24;1.77;;;1.48;;
23142;SDS011;11740;51.168;4.112;2023-07-24T01:40:56;3.08;;;1.55;;
23142;SDS011;11740;51.168;4.112;2023-07-24T01:43:24;2.78;;;1.63;;
23142;SDS011;11740;51.168;4.112;2023-07-24T01:45:53;3.50;;;1.90;;
23142;SDS011;11740;51.168;4.112;2023-07-24T01:48:20;2.92;;;1.60;;
23142;SDS011;11740;51.168;4.112;2023-07-24T01:50:48;2.15;;;1.60;;
23142;SDS011;11740;51.168;4.112;2023-07-24T01:53:14;1.63;;;1.50;;
23142;SDS011;11740;51.168;4.112;2023-07-24T01:55:41;2.55;;;1.52;;
23142;SDS011;11740;51.168;4.112;2023-07-24T01:58:08;3.80;;;1.80;;
23142;SDS011;11740;51.168;4.112;2023-07-24T02:00:35;1.90;;;1.50;;
23142;SDS011;11740;51.168;4.112;2023-07-24T02:03:02;3.63;;;1.60;;
23142;SDS011;11740;51.168;4.112;2023-07-24T02:05:29;2.10;;;1.90;;
23142;SDS011;11740;51.168;4.112;2023-07-24T02:07:56;2.80;;;1.38;;
23142;SDS011;11740;51.168;4.112;2023-07-24T02:10:24;3.25;;;1.83;;
23142;SDS011;11740;51.168;4.112;2023-07-24T02:12:51;2.00;;;1.80;;
23142;SDS011;11740;51.168;4.112;2023-07-24T02:15:18;1.92;;;1.73;;
23142;SDS011;11740;51.168;4.112;2023-07-24T02:17:44;2.00;;;1.80;;
23142;SDS011;11740;51.168;4.112;2023-07-24T02:20:11;2.60;;;1.80;;
23142;SDS011;11740;51.168;4.112;2023-07-24T02:22:38;1.83;;;1.67;;
23142;SDS011;11740;51.168;4.112;2023-07-24T02:25:05;2.88;;;1.98;;
23142;SDS011;11740;51.168;4.112;2023-07-24T02:27:33;3.30;;;1.90;;
23142;SDS011;11740;51.168;4.112;2023-07-24T02:30:01;2.10;;;1.70;;
23142;SDS011;11740;51.168;4.112;2023-07-24T02:32:29;3.10;;;1.52;;
23142;SDS011;11740;51.168;4.112;2023-07-24T02:34:56;4.28;;;2.25;;
23142;SDS011;11740;51.168;4.112;2023-07-24T02:37:23;2.53;;;1.90;;
23142;SDS011;11740;51.168;4.112;2023-07-24T02:39:51;3.33;;;2.13;;
23142;SDS011;11740;51.168;4.112;2023-07-24T02:42:19;2.25;;;1.88;;
23142;SDS011;11740;51.168;4.112;2023-07-24T02:44:46;4.50;;;2.30;;
23142;SDS011;11740;51.168;4.112;2023-07-24T02:47:13;4.20;;;2.25;;
23142;SDS011;11740;51.168;4.112;2023-07-24T02:49:40;3.45;;;2.53;;
23142;SDS011;11740;51.168;4.112;2023-07-24T02:52:07;3.05;;;2.58;;
23142;SDS011;11740;51.168;4.112;2023-07-24T02:54:34;3.63;;;2.42;;
23142;SDS011;11740;51.168;4.112;2023-07-24T02:57:00;4.68;;;2.70;;
23142;SDS011;11740;51.168;4.112;2023-07-24T02:59:29;4.72;;;3.20;;
23142;SDS011;11740;51.168;4.112;2023-07-24T03:01:56;4.60;;;2.75;;
23142;SDS011;11740;51.168;4.112;2023-07-24T03:04:23;4.57;;;2.58;;
23142;SDS011;11740;51.168;4.112;2023-07-24T03:06:50;2.90;;;2.60;;
23142;SDS011;11740;51.168;4.112;2023-07-24T03:09:17;4.47;;;2.70;;
23142;SDS011;11740;51.168;4.112;2023-07-24T03:11:44;3.10;;;2.47;;
23142;SDS011;11740;51.168;4.112;2023-07-24T03:14:11;2.95;;;2.50;;
23142;SDS011;11740;51.168;4.112;2023-07-24T03:16:38;4.60;;;2.40;;
23142;SDS011;11740;51.168;4.112;2023-07-24T03:19:05;3.95;;;2.50;;
23142;SDS011;11740;51.168;4.112;2023-07-24T03:21:32;3.28;;;2.53;;
23142;SDS011;11740;51.168;4.112;2023-07-24T03:23:59;5.32;;;2.60;;
23142;SDS011;11740;51.168;4.112;2023-07-24T03:26:26;4.78;;;2.67;;
23142;SDS011;11740;51.168;4.112;2023-07-24T03:28:53;2.75;;;2.28;;
23142;SDS011;11740;51.168;4.112;2023-07-24T03:31:20;2.40;;;2.20;;
23142;SDS011;11740;51.168;4.112;2023-07-24T03:33:47;2.35;;;2.08;;
23142;SDS011;11740;51.168;4.112;2023-07-24T03:36:14;2.88;;;2.13;;
23142;SDS011;11740;51.168;4.112;2023-07-24T03:38:41;4.57;;;2.70;;
23142;SDS011;11740;51.168;4.112;2023-07-24T03:41:08;3.85;;;2.50;;
23142;SDS011;11740;51.168;4.112;2023-07-24T03:43:35;2.97;;;2.47;;
23142;SDS011;11740;51.168;4.112;2023-07-24T03:46:02;3.47;;;2.50;;
23142;SDS011;11740;51.168;4.112;2023-07-24T03:48:29;3.80;;;2.50;;
23142;SDS011;11740;51.168;4.112;2023-07-24T03:50:59;3.25;;;2.50;;
23142;SDS011;11740;51.168;4.112;2023-07-24T03:53:27;3.47;;;2.70;;
23142;SDS011;11740;51.168;4.112;2023-07-24T03:55:54;2.70;;;2.50;;
23142;SDS011;11740;51.168;4.112;2023-07-24T03:58:21;2.97;;;2.63;;
23142;SDS011;11740;51.168;4.112;2023-07-24T04:00:48;2.95;;;2.58;;
23142;SDS011;11740;51.168;4.112;2023-07-24T04:03:15;3.00;;;2.65;;
23142;SDS011;11740;51.168;4.112;2023-07-24T04:05:42;4.32;;;2.60;;
23142;SDS011;11740;51.168;4.112;2023-07-24T04:08:09;4.47;;;2.70;;
23142;SDS011;11740;51.168;4.112;2023-07-24T04:10:36;4.60;;;2.80;;
23142;SDS011;11740;51.168;4.112;2023-07-24T04:13:03;3.20;;;2.90;;
23142;SDS011;11740;51.168;4.112;2023-07-24T04:15:30;4.90;;;2.78;;
23142;SDS011;11740;51.168;4.112;2023-07-24T04:17:57;3.50;;;2.60;;
23142;SDS011;11740;51.168;4.112;2023-07-24T04:20:24;2.88;;;2.65;;
23142;SDS011;11740;51.168;4.112;2023-07-24T04:22:50;3.08;;;2.78;;
23142;SDS011;11740;51.168;4.112;2023-07-24T04:25:17;3.70;;;2.60;;
23142;SDS011;11740;51.168;4.112;2023-07-24T04:27:44;3.72;;;2.50;;
23142;SDS011;11740;51.168;4.112;2023-07-24T04:30:11;2.85;;;2.30;;
23142;SDS011;11740;51.168;4.112;2023-07-24T04:32:38;4.82;;;2.50;;
23142;SDS011;11740;51.168;4.112;2023-07-24T04:35:05;2.95;;;2.45;;
23142;SDS011;11740;51.168;4.112;2023-07-24T04:37:33;2.88;;;2.55;;
23142;SDS011;11740;51.168;4.112;2023-07-24T04:40:00;3.70;;;2.60;;
23142;SDS011;11740;51.168;4.112;2023-07-24T04:42:27;3.47;;;2.40;;
23142;SDS011;11740;51.168;4.112;2023-07-24T04:44:54;3.03;;;2.20;;
23142;SDS011;11740;51.168;4.112;2023-07-24T04:47:20;3.63;;;2.53;;
23142;SDS011;11740;51.168;4.112;2023-07-24T04:49:47;3.00;;;2.50;;
23142;SDS011;11740;51.168;4.112;2023-07-24T04:52:14;4.20;;;2.67;;
23142;SDS011;11740;51.168;4.112;2023-07-24T04:54:41;3.45;;;2.67;;
23142;SDS011;11740;51.168;4.112;2023-07-24T04:57:08;3.60;;;3.00;;
23142;SDS011;11740;51.168;4.112;2023-07-24T04:59:35;3.25;;;2.63;;
23142;SDS011;11740;51.168;4.112;2023-07-24T05:02:02;3.60;;;2.78;;
23142;SDS011;11740;51.168;4.112;2023-07-24T05:04:29;2.80;;;2.53;;
23142;SDS011;11740;51.168;4.112;2023-07-24T05:06:56;4.18;;;3.00;;
23142;SDS011;11740;51.168;4.112;2023-07-24T05:09:23;2.63;;;2.35;;
23142;SDS011;11740;51.168;4.112;2023-07-24T05:11:50;5.65;;;2.88;;
23142;SDS011;11740;51.168;4.112;2023-07-24T05:14:17;3.53;;;2.67;;
23142;SDS011;11740;51.168;4.112;2023-07-24T05:16:44;5.72;;;3.22;;
23142;SDS011;11740;51.168;4.112;2023-07-24T05:19:11;3.72;;;2.60;;
23142;SDS011;11740;51.168;4.112;2023-07-24T05:21:38;3.63;;;2.92;;
23142;SDS011;11740;51.168;4.112;2023-07-24T05:24:05;3.90;;;3.00;;
23142;SDS011;11740;51.168;4.112;2023-07-24T05:26:32;5.80;;;2.90;;
23142;SDS011;11740;51.168;4.112;2023-07-24T05:28:58;4.60;;;2.72;;
23142;SDS011;11740;51.168;4.112;2023-07-24T05:31:25;4.95;;;2.58;;
23142;SDS011;11740;51.168;4.112;2023-07-24T05:33:52;3.42;;;2.83;;
23142;SDS011;11740;51.168;4.112;2023-07-24T05:36:19;3.85;;;2.92;;
23142;SDS011;11740;51.168;4.112;2023-07-24T05:38:46;4.28;;;3.05;;
23142;SDS011;11740;51.168;4.112;2023-07-24T05:41:13;4.95;;;3.00;;
23142;SDS011;11740;51.168;4.112;2023-07-24T05:43:40;3.15;;;2.75;;
23142;SDS011;11740;51.168;4.112;2023-07-24T05:46:07;3.90;;;3.10;;
23142;SDS011;11740;51.168;4.112;2023-07-24T05:48:34;3.10;;;2.60;;
23142;SDS011;11740;51.168;4.112;2023-07-24T05:51:00;3.70;;;2.90;;
23142;SDS011;11740;51.168;4.112;2023-07-24T05:53:27;4.50;;;3.00;;
23142;SDS011;11740;51.168;4.112;2023-07-24T05:55:58;4.03;;;2.60;;
23142;SDS011;11740;51.168;4.112;2023-07-24T05:58:26;3.25;;;2.95;;
23142;SDS011;11740;51.168;4.112;2023-07-24T06:00:54;4.65;;;2.83;;
23142;SDS011;11740;51.168;4.112;2023-07-24T06:03:24;4.75;;;2.90;;
23142;SDS011;11740;51.168;4.112;2023-07-24T06:05:51;4.68;;;2.80;;
23142;SDS011;11740;51.168;4.112;2023-07-24T06:08:22;3.38;;;2.70;;
23142;SDS011;11740;51.168;4.112;2023-07-24T06:10:50;3.53;;;2.85;;
23142;SDS011;11740;51.168;4.112;2023-07-24T06:13:17;4.32;;;2.55;;
23142;SDS011;11740;51.168;4.112;2023-07-24T06:15:46;4.85;;;2.75;;
23142;SDS011;11740;51.168;4.112;2023-07-24T06:18:17;3.58;;;2.83;;
23142;SDS011;11740;51.168;4.112;2023-07-24T06:20:44;4.28;;;2.40;;
23142;SDS011;11740;51.168;4.112;2023-07-24T06:23:11;4.05;;;2.30;;
23142;SDS011;11740;51.168;4.112;2023-07-24T06:25:38;5.82;;;3.13;;
23142;SDS011;11740;51.168;4.112;2023-07-24T06:28:05;3.90;;;3.13;;
23142;SDS011;11740;51.168;4.112;2023-07-24T06:30:32;3.15;;;2.83;;
23142;SDS011;11740;51.168;4.112;2023-07-24T06:32:59;4.70;;;3.20;;
23142;SDS011;11740;51.168;4.112;2023-07-24T06:35:26;4.03;;;2.92;;
23142;SDS011;11740;51.168;4.112;2023-07-24T06:37:53;3.83;;;3.42;;
23142;SDS011;11740;51.168;4.112;2023-07-24T06:40:20;4.85;;;3.33;;
23142;SDS011;11740;51.168;4.112;2023-07-24T06:42:47;5.82;;;3.10;;
23142;SDS011;11740;51.168;4.112;2023-07-24T06:45:14;5.13;;;3.20;;
23142;SDS011;11740;51.168;4.112;2023-07-24T06:47:41;3.60;;;3.30;;
23142;SDS011;11740;51.168;4.112;2023-07-24T06:50:08;6.30;;;3.70;;
23142;SDS011;11740;51.168;4.112;2023-07-24T06:52:35;3.88;;;3.50;;
23142;SDS011;11740;51.168;4.112;2023-07-24T06:55:03;4.50;;;3.40;;
23142;SDS011;11740;51.168;4.112;2023-07-24T06:57:31;4.35;;;3.53;;
23142;SDS011;11740;51.168;4.112;2023-07-24T06:59:58;4.60;;;3.40;;
23142;SDS011;11740;51.168;4.112;2023-07-24T07:02:25;6.13;;;4.35;;
23142;SDS011;11740;51.168;4.112;2023-07-24T07:04:52;3.97;;;3.55;;
23142;SDS011;11740;51.168;4.112;2023-07-24T07:07:19;5.60;;;4.10;;
23142;SDS011;11740;51.168;4.112;2023-07-24T07:09:46;5.85;;;3.63;;
23142;SDS011;11740;51.168;4.112;2023-07-24T07:12:12;5.25;;;3.58;;
23142;SDS011;11740;51.168;4.112;2023-07-24T07:14:39;5.90;;;3.55;;
23142;SDS011;11740;51.168;4.112;2023-07-24T07:17:06;3.78;;;3.38;;
23142;SDS011;11740;51.168;4.112;2023-07-24T07:19:33;6.00;;;3.28;;
23142;SDS011;11740;51.168;4.112;2023-07-24T07:22:02;9.38;;;3.53;;
23142;SDS011;11740;51.168;4.112;2023-07-24T07:24:29;3.70;;;3.30;;
23142;SDS011;11740;51.168;4.112;2023-07-24T07:26:56;5.20;;;3.67;;
23142;SDS011;11740;51.168;4.112;2023-07-24T07:29:23;3.92;;;3.58;;
23142;SDS011;11740;51.168;4.112;2023-07-24T07:31:51;6.55;;;4.00;;
23142;SDS011;11740;51.168;4.112;2023-07-24T07:34:18;5.22;;;3.58;;
23142;SDS011;11740;51.168;4.112;2023-07-24T07:36:44;4.22;;;3.83;;
23142;SDS011;11740;51.168;4.112;2023-07-24T07:39:11;4.70;;;3.55;;
23142;SDS011;11740;51.168;4.112;2023-07-24T07:41:38;4.88;;;3.92;;
23142;SDS011;11740;51.168;4.112;2023-07-24T07:44:05;6.85;;;3.97;;
23142;SDS011;11740;51.168;4.112;2023-07-24T07:46:32;5.40;;;3.72;;
23142;SDS011;11740;51.168;4.112;2023-07-24T07:48:59;5.38;;;3.72;;
23142;SDS011;11740;51.168;4.112;2023-07-24T07:51:26;3.42;;;3.08;;
23142;SDS011;11740;51.168;4.112;2023-07-24T07:53:53;5.03;;;3.45;;
23142;SDS011;11740;51.168;4.112;2023-07-24T07:56:20;3.35;;;3.05;;
23142;SDS011;11740;51.168;4.112;2023-07-24T07:58:47;4.82;;;3.55;;
23142;SDS011;11740;51.168;4.112;2023-07-24T08:01:15;4.75;;;3.25;;
23142;SDS011;11740;51.168;4.112;2023-07-24T08:03:42;3.97;;;3.25;;
23142;SDS011;11740;51.168;4.112;2023-07-24T08:06:09;4.07;;;3.00;;
23142;SDS011;11740;51.168;4.112;2023-07-24T08:08:36;3.47;;;3.17;;
23142;SDS011;11740;51.168;4.112;2023-07-24T08:11:06;3.47;;;3.00;;
23142;SDS011;11740;51.168;4.112;2023-07-24T08:13:33;3.05;;;2.75;;
23142;SDS011;11740;51.168;4.112;2023-07-24T08:16:01;3.47;;;3.05;;
23142;SDS011;11740;51.168;4.112;2023-07-24T08:18:30;4.07;;;2.85;;
23142;SDS011;11740;51.168;4.112;2023-07-24T08:20:57;5.30;;;3.00;;
23142;SDS011;11740;51.168;4.112;2023-07-24T08:23:24;3.03;;;2.45;;
23142;SDS011;11740;51.168;4.112;2023-07-24T08:25:52;3.35;;;2.70;;
23142;SDS011;11740;51.168;4.112;2023-07-24T08:28:21;2.92;;;2.72;;
23142;SDS011;11740;51.168;4.112;2023-07-24T08:30:58;3.10;;;2.80;;
23142;SDS011;11740;51.168;4.112;2023-07-24T08:33:29;2.95;;;2.75;;
23142;SDS011;11740;51.168;4.112;2023-07-24T08:36:03;3.58;;;2.95;;
23142;SDS011;11740;51.168;4.112;2023-07-24T08:38:35;3.67;;;2.90;;
23142;SDS011;11740;51.168;4.112;2023-07-24T08:41:07;3.28;;;2.70;;
23142;SDS011;11740;51.168;4.112;2023-07-24T08:43:39;3.45;;;3.00;;
23142;SDS011;11740;51.168;4.112;2023-07-24T08:46:08;3.63;;;2.80;;
23142;SDS011;11740;51.168;4.112;2023-07-24T08:48:37;3.90;;;2.80;;
23142;SDS011;11740;51.168;4.112;2023-07-24T08:51:07;4.00;;;3.00;;
23142;SDS011;11740;51.168;4.112;2023-07-24T08:53:39;4.75;;;3.25;;
23142;SDS011;11740;51.168;4.112;2023-07-24T08:56:12;4.10;;;3.70;;
23142;SDS011;11740;51.168;4.112;2023-07-24T09:01:32;4.30;;;3.20;;
23142;SDS011;11740;51.168;4.112;2023-07-24T09:04:00;3.63;;;3.33;;
23142;SDS011;11740;51.168;4.112;2023-07-24T09:06:27;5.57;;;3.80;;
23142;SDS011;11740;51.168;4.112;2023-07-24T09:08:54;4.20;;;3.58;;
23142;SDS011;11740;51.168;4.112;2023-07-24T09:11:21;4.57;;;3.58;;
23142;SDS011;11740;51.168;4.112;2023-07-24T09:13:48;4.25;;;3.70;;
23142;SDS011;11740;51.168;4.112;2023-07-24T09:16:26;5.60;;;3.50;;
23142;SDS011;11740;51.168;4.112;2023-07-24T09:18:53;7.22;;;3.78;;
23142;SDS011;11740;51.168;4.112;2023-07-24T09:21:28;5.53;;;3.40;;
23142;SDS011;11740;51.168;4.112;2023-07-24T09:23:56;4.30;;;3.50;;
23142;SDS011;11740;51.168;4.112;2023-07-24T09:26:23;3.92;;;3.47;;
23142;SDS011;11740;51.168;4.112;2023-07-24T09:28:51;4.18;;;3.30;;
23142;SDS011;11740;51.168;4.112;2023-07-24T09:31:21;8.57;;;3.65;;
23142;SDS011;11740;51.168;4.112;2023-07-24T09:33:48;5.32;;;3.47;;
23142;SDS011;11740;51.168;4.112;2023-07-24T09:36:15;3.97;;;3.33;;
23142;SDS011;11740;51.168;4.112;2023-07-24T09:38:42;4.78;;;3.33;;
23142;SDS011;11740;51.168;4.112;2023-07-24T09:41:09;9.07;;;3.47;;
23142;SDS011;11740;51.168;4.112;2023-07-24T09:43:38;4.45;;;3.40;;
23142;SDS011;11740;51.168;4.112;2023-07-24T09:46:07;5.72;;;3.58;;
23142;SDS011;11740;51.168;4.112;2023-07-24T09:48:36;5.78;;;3.40;;
23142;SDS011;11740;51.168;4.112;2023-07-24T09:51:06;5.50;;;4.15;;
23142;SDS011;11740;51.168;4.112;2023-07-24T09:53:41;4.88;;;4.10;;
23142;SDS011;11740;51.168;4.112;2023-07-24T09:56:14;5.82;;;3.97;;
23142;SDS011;11740;51.168;4.112;2023-07-24T09:58:43;6.43;;;3.75;;
23142;SDS011;11740;51.168;4.112;2023-07-24T10:01:11;7.07;;;4.15;;
23142;SDS011;11740;51.168;4.112;2023-07-24T10:03:39;5.90;;;4.20;;
23142;SDS011;11740;51.168;4.112;2023-07-24T10:06:12;5.47;;;4.50;;
23142;SDS011;11740;51.168;4.112;2023-07-24T10:08:41;5.25;;;4.32;;
23142;SDS011;11740;51.168;4.112;2023-07-24T10:11:11;7.43;;;4.78;;
23142;SDS011;11740;51.168;4.112;2023-07-24T10:13:42;7.65;;;4.80;;
23142;SDS011;11740;51.168;4.112;2023-07-24T10:16:09;9.52;;;5.40;;
23142;SDS011;11740;51.168;4.112;2023-07-24T10:18:46;5.78;;;4.97;;
23142;SDS011;11740;51.168;4.112;2023-07-24T10:21:13;7.30;;;5.53;;
23142;SDS011;11740;51.168;4.112;2023-07-24T10:23:41;7.32;;;5.80;;
23142;SDS011;11740;51.168;4.112;2023-07-24T10:26:10;7.03;;;5.40;;
23142;SDS011;11740;51.168;4.112;2023-07-24T10:28:39;6.80;;;5.38;;
23142;SDS011;11740;51.168;4.112;2023-07-24T10:31:21;8.65;;;7.00;;
23142;SDS011;11740;51.168;4.112;2023-07-24T10:33:50;10.20;;;7.47;;
23142;SDS011;11740;51.168;4.112;2023-07-24T10:36:18;9.73;;;7.22;;
23142;SDS011;11740;51.168;4.112;2023-07-24T10:38:52;10.50;;;6.60;;
23142;SDS011;11740;51.168;4.112;2023-07-24T10:41:21;7.78;;;6.63;;
23142;SDS011;11740;51.168;4.112;2023-07-24T10:43:49;8.35;;;6.10;;
23142;SDS011;11740;51.168;4.112;2023-07-24T10:46:19;6.70;;;5.68;;
23142;SDS011;11740;51.168;4.112;2023-07-24T10:48:48;8.68;;;6.10;;
23142;SDS011;11740;51.168;4.112;2023-07-24T10:51:17;8.13;;;5.90;;
23142;SDS011;11740;51.168;4.112;2023-07-24T10:53:45;7.90;;;5.63;;
23142;SDS011;11740;51.168;4.112;2023-07-24T10:56:14;11.80;;;6.65;;
23142;SDS011;11740;51.168;4.112;2023-07-24T10:58:42;8.25;;;6.13;;
23142;SDS011;11740;51.168;4.112;2023-07-24T11:01:09;8.32;;;6.38;;
23142;SDS011;11740;51.168;4.112;2023-07-24T11:03:41;7.55;;;5.55;;
23142;SDS011;11740;51.168;4.112;2023-07-24T11:06:12;9.25;;;5.97;;
23142;SDS011;11740;51.168;4.112;2023-07-24T11:08:53;8.50;;;5.15;;
23142;SDS011;11740;51.168;4.112;2023-07-24T11:11:29;8.73;;;5.10;;
23142;SDS011;11740;51.168;4.112;2023-07-24T11:13:57;6.85;;;4.97;;
23142;SDS011;11740;51.168;4.112;2023-07-24T11:16:24;9.20;;;5.30;;
23142;SDS011;11740;51.168;4.112;2023-07-24T11:18:51;7.50;;;5.20;;
23142;SDS011;11740;51.168;4.112;2023-07-24T11:21:20;6.80;;;5.18;;
23142;SDS011;11740;51.168;4.112;2023-07-24T11:23:51;9.55;;;5.13;;
23142;SDS011;11740;51.168;4.112;2023-07-24T11:26:24;8.00;;;4.93;;
23142;SDS011;11740;51.168;4.112;2023-07-24T11:28:52;6.22;;;5.18;;
23142;SDS011;11740;51.168;4.112;2023-07-24T11:31:20;7.47;;;4.78;;
23142;SDS011;11740;51.168;4.112;2023-07-24T11:33:48;6.20;;;4.47;;
23142;SDS011;11740;51.168;4.112;2023-07-24T11:36:16;8.40;;;4.68;;
23142;SDS011;11740;51.168;4.112;2023-07-24T11:38:44;6.30;;;5.00;;
23142;SDS011;11740;51.168;4.112;2023-07-24T11:41:12;8.85;;;4.35;;
23142;SDS011;11740;51.168;4.112;2023-07-24T11:43:47;6.95;;;4.30;;
23142;SDS011;11740;51.168;4.112;2023-07-24T11:46:26;7.47;;;4.70;;
23142;SDS011;11740;51.168;4.112;2023-07-24T11:48:55;6.38;;;4.10;;
23142;SDS011;11740;51.168;4.112;2023-07-24T11:51:24;9.07;;;4.30;;
23142;SDS011;11740;51.168;4.112;2023-07-24T11:54:03;5.80;;;4.55;;
23142;SDS011;11740;51.168;4.112;2023-07-24T11:56:34;5.18;;;3.90;;
23142;SDS011;11740;51.168;4.112;2023-07-24T11:59:11;6.05;;;4.47;;
23142;SDS011;11740;51.168;4.112;2023-07-24T12:01:40;8.20;;;4.78;;
23142;SDS011;11740;51.168;4.112;2023-07-24T12:04:07;6.22;;;4.03;;
23142;SDS011;11740;51.168;4.112;2023-07-24T12:06:35;5.93;;;4.00;;
23142;SDS011;11740;51.168;4.112;2023-07-24T12:09:04;5.45;;;4.00;;
23142;SDS011;11740;51.168;4.112;2023-07-24T12:11:32;5.85;;;4.13;;
23142;SDS011;11740;51.168;4.112;2023-07-24T12:13:59;5.13;;;4.30;;
23142;SDS011;11740;51.168;4.112;2023-07-24T12:16:27;6.78;;;4.47;;
23142;SDS011;11740;51.168;4.112;2023-07-24T12:18:54;5.38;;;4.13;;
23142;SDS011;11740;51.168;4.112;2023-07-24T12:21:21;5.75;;;3.90;;
23142;SDS011;11740;51.168;4.112;2023-07-24T12:23:48;7.63;;;4.25;;
23142;SDS011;11740;51.168;4.112;2023-07-24T12:26:15;7.30;;;4.57;;
23142;SDS011;11740;51.168;4.112;2023-07-24T12:28:42;5.47;;;4.35;;
23142;SDS011;11740;51.168;4.112;2023-07-24T12:31:09;6.68;;;4.38;;
23142;SDS011;11740;51.168;4.112;2023-07-24T12:33:36;5.38;;;4.20;;
23142;SDS011;11740;51.168;4.112;2023-07-24T12:36:03;6.90;;;4.60;;
23142;SDS011;11740;51.168;4.112;2023-07-24T12:38:31;6.60;;;4.43;;
23142;SDS011;11740;51.168;4.112;2023-07-24T12:40:58;8.63;;;4.43;;
23142;SDS011;11740;51.168;4.112;2023-07-24T12:43:25;4.97;;;4.47;;
23142;SDS011;11740;51.168;4.112;2023-07-24T12:45:52;4.95;;;4.35;;
23142;SDS011;11740;51.168;4.112;2023-07-24T12:48:18;9.10;;;4.90;;
23142;SDS011;11740;51.168;4.112;2023-07-24T12:50:46;6.75;;;4.97;;
23142;SDS011;11740;51.168;4.112;2023-07-24T12:53:13;5.45;;;4.05;;
23142;SDS011;11740;51.168;4.112;2023-07-24T12:55:49;6.60;;;4.28;;
23142;SDS011;11740;51.168;4.112;2023-07-24T12:58:16;8.43;;;4.25;;
23142;SDS011;11740;51.168;4.112;2023-07-24T13:00:43;7.95;;;3.47;;
23142;SDS011;11740;51.168;4.112;2023-07-24T13:03:10;6.15;;;3.47;;
23142;SDS011;11740;51.168;4.112;2023-07-24T13:05:37;4.32;;;3.78;;
23142;SDS011;11740;51.168;4.112;2023-07-24T13:08:04;5.43;;;3.92;;
23142;SDS011;11740;51.168;4.112;2023-07-24T13:10:31;5.63;;;3.72;;
23142;SDS011;11740;51.168;4.112;2023-07-24T13:12:58;6.35;;;4.00;;
23142;SDS011;11740;51.168;4.112;2023-07-24T13:15:27;6.57;;;4.45;;
23142;SDS011;11740;51.168;4.112;2023-07-24T13:17:55;10.05;;;5.25;;
23142;SDS011;11740;51.168;4.112;2023-07-24T13:20:24;6.32;;;4.93;;
23142;SDS011;11740;51.168;4.112;2023-07-24T13:22:51;6.75;;;4.50;;
23142;SDS011;11740;51.168;4.112;2023-07-24T13:25:18;5.72;;;4.20;;
23142;SDS011;11740;51.168;4.112;2023-07-24T13:27:45;4.68;;;4.20;;
23142;SDS011;11740;51.168;4.112;2023-07-24T13:30:12;5.68;;;4.05;;
23142;SDS011;11740;51.168;4.112;2023-07-24T13:32:39;5.18;;;3.72;;
23142;SDS011;11740;51.168;4.112;2023-07-24T13:35:06;7.10;;;4.72;;
23142;SDS011;11740;51.168;4.112;2023-07-24T13:37:34;5.78;;;5.00;;
23142;SDS011;11740;51.168;4.112;2023-07-24T13:40:00;6.43;;;5.13;;
23142;SDS011;11740;51.168;4.112;2023-07-24T13:42:27;6.10;;;4.78;;
23142;SDS011;11740;51.168;4.112;2023-07-24T13:44:54;8.90;;;5.18;;
23142;SDS011;11740;51.168;4.112;2023-07-24T13:47:21;8.23;;;5.80;;
23142;SDS011;11740;51.168;4.112;2023-07-24T13:49:48;11.85;;;6.60;;
23142;SDS011;11740;51.168;4.112;2023-07-24T13:52:15;8.60;;;6.25;;
23142;SDS011;11740;51.168;4.112;2023-07-24T13:54:42;10.02;;;6.50;;
23142;SDS011;11740;51.168;4.112;2023-07-24T13:57:09;9.13;;;8.13;;
23142;SDS011;11740;51.168;4.112;2023-07-24T13:59:36;11.43;;;7.78;;
23142;SDS011;11740;51.168;4.112;2023-07-24T14:02:06;9.73;;;6.72;;
23142;SDS011;11740;51.168;4.112;2023-07-24T14:04:34;7.78;;;5.07;;
23142;SDS011;11740;51.168;4.112;2023-07-24T14:07:01;5.22;;;3.83;;
23142;SDS011;11740;51.168;4.112;2023-07-24T14:09:27;7.53;;;4.03;;
23142;SDS011;11740;51.168;4.112;2023-07-24T14:11:54;5.40;;;3.60;;
23142;SDS011;11740;51.168;4.112;2023-07-24T14:14:21;5.25;;;3.50;;
23142;SDS011;11740;51.168;4.112;2023-07-24T14:16:49;5.97;;;2.83;;
23142;SDS011;11740;51.168;4.112;2023-07-24T14:19:17;4.53;;;3.05;;
23142;SDS011;11740;51.168;4.112;2023-07-24T14:21:47;3.45;;;2.80;;
23142;SDS011;11740;51.168;4.112;2023-07-24T14:24:14;5.75;;;2.80;;
23142;SDS011;11740;51.168;4.112;2023-07-24T14:26:41;4.38;;;2.80;;
23142;SDS011;11740;51.168;4.112;2023-07-24T14:29:08;4.85;;;2.63;;
23142;SDS011;11740;51.168;4.112;2023-07-24T14:31:35;3.25;;;2.88;;
23142;SDS011;11740;51.168;4.112;2023-07-24T14:34:02;5.95;;;3.60;;
23142;SDS011;11740;51.168;4.112;2023-07-24T14:36:29;5.38;;;2.72;;
23142;SDS011;11740;51.168;4.112;2023-07-24T14:39:00;5.00;;;3.20;;
23142;SDS011;11740;51.168;4.112;2023-07-24T14:41:27;6.15;;;3.42;;
23142;SDS011;11740;51.168;4.112;2023-07-24T14:43:54;6.72;;;3.40;;
23142;SDS011;11740;51.168;4.112;2023-07-24T14:46:21;3.60;;;2.88;;
23142;SDS011;11740;51.168;4.112;2023-07-24T14:48:49;5.18;;;3.25;;
23142;SDS011;11740;51.168;4.112;2023-07-24T14:51:16;6.57;;;3.70;;
23142;SDS011;11740;51.168;4.112;2023-07-24T14:53:43;6.25;;;4.18;;
23142;SDS011;11740;51.168;4.112;2023-07-24T14:56:10;5.25;;;3.65;;